createdAt,value
2019-03-17T00:01:22.054Z,75.15
2019-03-17T00:03:53.110Z,75.45
2019-03-17T00:06:24.169Z,75.84
2019-03-17T00:08:55.310Z,75.78
2019-03-17T00:11:26.489Z,76.11
2019-03-17T00:13:57.535Z,76.23
2019-03-17T00:16:28.606Z,75.99
2019-03-17T00:18:59.650Z,76.04
2019-03-17T00:21:30.779Z,75.99
2019-03-17T00:24:02.690Z,75.76
2019-03-17T00:26:36.225Z,75.68
2019-03-17T00:29:07.306Z,75.83
2019-03-17T00:31:39.312Z,76.08
2019-03-17T00:34:10.303Z,75.97
2019-03-17T00:36:41.414Z,76.33
2019-03-17T00:39:12.540Z,76.47
2019-03-17T00:41:43.681Z,76.72
2019-03-17T00:44:14.761Z,76.60
2019-03-17T00:46:46.678Z,76.27
2019-03-17T00:49:17.710Z,76.76
2019-03-17T00:51:48.813Z,76.68
2019-03-17T00:54:19.930Z,77.08
2019-03-17T00:56:51.030Z,76.95
2019-03-17T00:59:22.058Z,77.32
2019-03-17T01:01:53.934Z,77.63
2019-03-17T01:04:25.300Z,77.58
2019-03-17T01:06:56.319Z,77.65
2019-03-17T01:09:27.702Z,77.78
2019-03-17T01:11:58.858Z,77.99
2019-03-17T01:14:29.827Z,77.63
2019-03-17T01:17:01.398Z,77.59
2019-03-17T01:19:32.473Z,77.15
2019-03-17T01:22:03.628Z,77.78
2019-03-17T01:24:34.715Z,77.99
2019-03-17T01:27:05.766Z,78.14
2019-03-17T01:29:36.971Z,78.19
2019-03-17T01:32:07.943Z,78.72
2019-03-17T01:34:38.975Z,78.16
2019-03-17T01:37:10.098Z,78.07
2019-03-17T01:39:41.051Z,78.61
2019-03-17T01:42:12.069Z,78.20
2019-03-17T01:44:43.185Z,78.41
2019-03-17T01:47:14.221Z,78.66
2019-03-17T01:49:45.227Z,78.84
2019-03-17T01:52:16.238Z,79.09
2019-03-17T01:54:47.326Z,78.89
2019-03-17T01:57:18.489Z,78.72
2019-03-17T01:59:49.559Z,78.28
2019-03-17T02:02:20.704Z,78.43
2019-03-17T02:04:51.677Z,78.90
2019-03-17T02:07:27.299Z,78.43
2019-03-17T02:09:58.378Z,78.74
2019-03-17T02:12:29.375Z,78.97
2019-03-17T02:15:00.444Z,78.78
2019-03-17T02:17:31.405Z,79.05
2019-03-17T02:20:02.524Z,79.32
2019-03-17T02:22:33.545Z,78.89
2019-03-17T02:25:06.387Z,79.57
2019-03-17T02:27:37.381Z,79.50
2019-03-17T02:30:11.440Z,79.50
2019-03-17T02:32:42.440Z,80.41
2019-03-17T02:35:13.504Z,79.83
2019-03-17T02:37:45.085Z,79.43
2019-03-17T02:40:16.103Z,79.57
2019-03-17T02:42:47.366Z,79.79
2019-03-17T02:45:18.418Z,80.14
2019-03-17T02:47:49.611Z,80.89
2019-03-17T02:50:21.195Z,81.02
2019-03-17T02:52:52.412Z,80.82
2019-03-17T02:55:23.426Z,80.71
2019-03-17T02:57:54.398Z,81.27
2019-03-17T03:00:25.726Z,80.72
2019-03-17T03:02:56.811Z,81.00
2019-03-17T03:05:28.067Z,80.87
2019-03-17T03:07:59.078Z,80.78
2019-03-17T03:10:32.128Z,80.60
2019-03-17T03:13:03.488Z,80.65
2019-03-17T03:15:34.698Z,81.42
2019-03-17T03:18:05.645Z,81.75
2019-03-17T03:20:36.716Z,81.43
2019-03-17T03:23:09.954Z,81.24
2019-03-17T03:25:41.076Z,81.21
2019-03-17T03:28:12.161Z,81.37
2019-03-17T03:30:43.223Z,81.11
2019-03-17T03:33:14.348Z,81.24
2019-03-17T03:35:45.390Z,81.03
2019-03-17T03:38:18.568Z,80.95
2019-03-17T03:40:50.537Z,81.35
2019-03-17T03:43:21.794Z,81.83
2019-03-17T03:45:52.895Z,81.20
2019-03-17T03:48:24.031Z,80.89
2019-03-17T03:50:55.034Z,81.14
2019-03-17T03:53:26.659Z,81.08
2019-03-17T03:56:00.369Z,81.30
2019-03-17T03:58:31.416Z,80.78
2019-03-17T04:01:02.390Z,80.56
2019-03-17T04:03:33.547Z,81.07
2019-03-17T04:06:05.121Z,80.61
2019-03-17T04:08:36.265Z,80.78
2019-03-17T04:11:07.426Z,80.36
2019-03-17T04:13:38.432Z,80.43
2019-03-17T04:16:09.470Z,80.62
2019-03-17T04:18:40.499Z,80.79
2019-03-17T04:21:11.540Z,80.76
2019-03-17T04:23:42.494Z,80.86
2019-03-17T04:26:14.555Z,81.05
2019-03-17T04:28:45.595Z,81.43
2019-03-17T04:31:16.701Z,81.23
2019-03-17T04:33:48.353Z,81.46
2019-03-17T04:36:19.436Z,81.24
2019-03-17T04:38:50.626Z,81.07
2019-03-17T04:41:21.740Z,81.59
2019-03-17T04:43:52.800Z,81.49
2019-03-17T04:46:23.809Z,81.45
2019-03-17T04:48:55.206Z,81.33
2019-03-17T04:51:27.308Z,81.33
2019-03-17T04:53:58.407Z,81.16
2019-03-17T04:56:29.500Z,81.37
2019-03-17T04:59:00.587Z,81.36
2019-03-17T05:01:31.631Z,81.27
2019-03-17T05:04:02.724Z,81.03
2019-03-17T05:06:33.868Z,81.06
2019-03-17T05:09:06.652Z,80.89
2019-03-17T05:11:37.905Z,80.79
2019-03-17T05:14:09.615Z,80.79
2019-03-17T05:16:40.690Z,80.91
2019-03-17T05:19:11.776Z,80.90
2019-03-17T05:21:42.916Z,80.94
2019-03-17T05:24:14.062Z,81.09
2019-03-17T05:26:45.606Z,81.10
2019-03-17T05:29:17.076Z,81.32
2019-03-17T05:31:48.771Z,81.51
2019-03-17T05:34:20.820Z,82.09
2019-03-17T05:37:05.020Z,82.06
2019-03-17T05:39:24.550Z,82.11
2019-03-17T05:41:57.012Z,82.00
2019-03-17T05:44:28.134Z,82.00
2019-03-17T05:46:59.167Z,82.76
2019-03-17T05:49:30.266Z,82.28
2019-03-17T05:52:02.095Z,82.17
2019-03-17T05:54:33.631Z,82.03
2019-03-17T06:00:26.580Z,81.92
2019-03-17T06:03:23.242Z,81.85
2019-03-17T06:06:13.045Z,81.72
2019-03-17T06:08:50.005Z,81.74
2019-03-17T06:11:26.102Z,81.90
2019-03-17T06:13:58.727Z,81.80
2019-03-17T06:16:29.835Z,81.60
2019-03-17T06:19:03.387Z,81.82
2019-03-17T06:21:34.778Z,81.68
2019-03-17T06:24:05.836Z,81.33
2019-03-17T06:26:37.187Z,81.24
2019-03-17T06:29:08.333Z,81.21
2019-03-17T06:31:39.357Z,81.62
2019-03-17T06:34:10.494Z,81.44
2019-03-17T06:36:41.661Z,81.36
2019-03-17T06:39:15.450Z,81.12
2019-03-17T06:41:46.491Z,80.94
2019-03-17T06:44:17.549Z,80.70
2019-03-17T06:46:48.673Z,80.96
2019-03-17T06:49:19.778Z,80.67
2019-03-17T06:51:51.041Z,80.42
2019-03-17T06:54:23.367Z,80.46
2019-03-17T06:56:54.350Z,80.51
2019-03-17T06:59:26.409Z,80.13
2019-03-17T07:01:57.435Z,80.08
2019-03-17T07:04:28.633Z,79.89
2019-03-17T07:06:59.669Z,79.77
2019-03-17T07:09:30.835Z,80.02
2019-03-17T07:12:01.966Z,79.68
2019-03-17T07:14:33.850Z,79.70
2019-03-17T07:17:05.090Z,79.46
2019-03-17T07:19:36.827Z,79.29
2019-03-17T07:22:07.846Z,79.34
2019-03-17T07:24:38.968Z,79.18
2019-03-17T07:27:10.126Z,79.06
2019-03-17T07:29:43.697Z,79.19
2019-03-17T07:32:14.846Z,78.87
2019-03-17T07:34:46.059Z,78.64
2019-03-17T07:37:22.357Z,78.77
2019-03-17T07:39:53.477Z,78.46
2019-03-17T07:42:24.447Z,78.40
2019-03-17T07:44:56.881Z,78.07
2019-03-17T07:47:27.985Z,77.84
2019-03-17T07:49:59.526Z,77.81
2019-03-17T07:52:31.822Z,77.53
2019-03-17T07:55:02.931Z,77.50
2019-03-17T07:57:34.086Z,77.33
2019-03-17T08:00:15.920Z,76.97
2019-03-17T08:02:47.010Z,76.61
2019-03-17T08:05:18.167Z,76.35
2019-03-17T08:07:49.136Z,76.33
2019-03-17T08:10:20.346Z,76.29
2019-03-17T08:12:51.461Z,76.06
2019-03-17T08:15:23.481Z,75.97
2019-03-17T08:17:54.565Z,75.70
2019-03-17T08:20:25.774Z,75.66
2019-03-17T08:22:56.885Z,75.61
2019-03-17T08:25:28.038Z,75.47
2019-03-17T08:27:59.195Z,75.36
2019-03-17T08:30:31.101Z,75.23
2019-03-17T08:33:03.792Z,74.97
2019-03-17T08:35:34.965Z,74.96
2019-03-17T08:38:22.069Z,74.91
2019-03-17T08:41:10.269Z,74.69
2019-03-17T08:44:24.190Z,74.77
2019-03-17T08:50:12.856Z,74.37
2019-03-17T08:56:01.026Z,73.79
2019-03-17T08:58:32.262Z,73.67
2019-03-17T09:01:04.724Z,73.62
2019-03-17T09:07:15.125Z,73.26
2019-03-17T09:10:25.708Z,73.25
2019-03-17T09:16:30.153Z,73.06
2019-03-17T09:29:58.794Z,72.27
2019-03-17T09:40:09.770Z,71.52
2019-03-17T09:46:22.589Z,70.72
2019-03-17T10:10:02.519Z,68.05
2019-03-17T10:16:17.586Z,67.33
2019-03-17T10:19:06.942Z,67.13
2019-03-17T10:25:17.616Z,66.34
2019-03-17T10:28:35.366Z,66.17
2019-03-17T10:31:46.997Z,65.99
2019-03-17T10:34:49.630Z,65.63
2019-03-17T10:53:46.422Z,64.31
2019-03-17T11:06:10.479Z,63.39
2019-03-17T11:12:49.917Z,62.62
2019-03-17T11:16:04.600Z,61.92
2019-03-17T11:29:50.005Z,61.23
2019-03-17T11:36:49.163Z,59.78
2019-03-17T12:06:48.451Z,58.79
2019-03-17T12:15:39.554Z,58.62
2019-03-17T12:18:43.844Z,58.15
2019-03-17T12:24:47.343Z,57.24
2019-03-17T12:31:15.017Z,57.20
2019-03-17T12:37:18.553Z,56.40
2019-03-17T12:40:43.002Z,56.26
2019-03-17T12:54:16.112Z,55.22
2019-03-17T13:10:43.945Z,55.48
2019-03-17T13:13:59.749Z,55.67
2019-03-17T13:17:42.592Z,55.45
2019-03-17T14:04:53.915Z,57.66
2019-03-17T14:10:47.310Z,59.29
2019-03-17T14:20:02.980Z,62.84
2019-03-17T14:23:41.891Z,63.61
2019-03-17T14:26:37.790Z,64.51
2019-03-17T14:32:00.923Z,65.16
2019-03-17T14:34:44.774Z,65.63
2019-03-17T14:37:32.808Z,65.82
2019-03-17T14:40:25.648Z,65.60
2019-03-17T14:46:08.626Z,65.84
2019-03-17T14:48:10.347Z,65.64
2019-03-17T14:48:48.243Z,66.02
2019-03-17T14:51:19.302Z,66.24
2019-03-17T14:53:51.487Z,66.11
2019-03-17T14:56:23.296Z,66.21
2019-03-17T14:58:54.731Z,66.78
2019-03-17T15:01:28.702Z,67.02
2019-03-17T15:03:59.942Z,67.24
2019-03-17T15:06:31.174Z,67.61
2019-03-17T15:09:03.345Z,67.98
2019-03-17T15:11:34.465Z,68.02
2019-03-17T15:14:05.848Z,68.26
2019-03-17T15:16:37.324Z,68.37
2019-03-17T15:19:10.036Z,68.51
2019-03-17T15:21:41.411Z,68.81
2019-03-17T15:24:13.507Z,68.95
2019-03-17T15:26:44.967Z,69.27
2019-03-17T15:29:16.276Z,69.87
2019-03-17T15:31:47.628Z,70.39
2019-03-17T15:34:20.138Z,70.46
2019-03-17T15:36:51.441Z,70.85
2019-03-17T15:39:22.786Z,71.03
2019-03-17T15:41:55.129Z,71.14
2019-03-17T15:44:26.727Z,71.30
2019-03-17T15:46:59.889Z,71.17
2019-03-17T15:49:31.822Z,71.33
2019-03-17T15:52:03.319Z,71.15
2019-03-17T15:54:34.726Z,70.90
2019-03-17T15:57:09.070Z,71.15
2019-03-17T15:59:42.956Z,70.91
2019-03-17T16:02:14.248Z,70.97
2019-03-17T16:04:45.521Z,70.83
2019-03-17T16:07:42.314Z,68.97
2019-03-17T16:10:33.748Z,68.52
2019-03-17T16:13:41.286Z,68.80
2019-03-17T16:16:21.733Z,69.15
2019-03-17T16:19:08.817Z,69.68
2019-03-17T16:25:08.132Z,70.42
2019-03-17T16:28:01.528Z,71.01
2019-03-17T16:33:17.400Z,70.83
2019-03-17T16:36:03.516Z,71.21
2019-03-17T16:38:46.657Z,71.58
2019-03-17T16:41:42.621Z,71.93
2019-03-17T16:44:22.133Z,72.11
2019-03-17T16:47:10.869Z,72.40
2019-03-17T16:50:14.006Z,72.35
2019-03-17T16:52:36.707Z,72.25
2019-03-17T16:55:28.915Z,72.25
2019-03-17T16:58:21.437Z,72.57
2019-03-17T17:01:06.450Z,72.65
2019-03-17T17:03:59.718Z,72.80
2019-03-17T17:07:24.891Z,72.80
2019-03-17T17:10:00.665Z,72.71
2019-03-17T17:15:33.764Z,73.10
2019-03-17T17:20:53.352Z,73.26
2019-03-17T17:23:41.455Z,73.41
2019-03-17T17:26:37.398Z,73.47
2019-03-17T17:29:44.004Z,73.81
2019-03-17T17:35:32.184Z,73.77
2019-03-17T17:38:32.760Z,73.78
2019-03-17T17:41:51.373Z,73.78
2019-03-17T17:45:02.101Z,74.12
2019-03-17T17:47:50.654Z,74.22
2019-03-17T17:53:38.173Z,74.40
2019-03-17T18:03:13.333Z,74.23
2019-03-17T18:05:56.637Z,75.71
2019-03-17T19:12:26.030Z,70.07
2019-03-17T19:19:49.670Z,71.74
2019-03-17T20:11:30.851Z,73.97
2019-03-17T21:51:21.570Z,75.49
2019-03-17T21:56:32.636Z,75.21
2019-03-17T22:02:55.115Z,75.13
2019-03-17T22:03:05.892Z,75.15
2019-03-17T22:06:03.138Z,75.21
2019-03-17T22:33:21.883Z,74.89
2019-03-17T22:47:15.569Z,74.97
2019-03-17T22:53:02.660Z,75.17
2019-03-17T22:59:03.832Z,75.16
2019-03-17T23:02:02.191Z,75.62
2019-03-17T23:08:25.346Z,75.81
2019-03-17T23:27:33.648Z,75.61
2019-03-17T23:30:42.732Z,75.64
2019-03-17T23:33:27.642Z,75.70
2019-03-17T23:39:36.013Z,75.56
2019-03-17T23:55:22.045Z,75.03
2019-03-17T23:58:18.524Z,74.71
